Time;durP1;ratioP1;P1;durP2;ratioP2;P2;SDS_P1;SDS_P2;PMS_P1;PMS_P2;Temp;Humidity;BMP_temperature;BMP_pressure;BME280_temperature;BME280_humidity;BME280_pressure;Samples;Min_cycle;Max_cycle;Signal;HPM_P1;HPM_P2
2022/02/07 00:00:23;;;;;;;19.30;2.63;;;6.10;99.90;;;;;;5011497;28;20050;-54
2022/02/07 00:05:29;;;;;;;13.60;2.05;;;6.00;99.90;;;;;;5011525;28;20026;-54
2022/02/07 00:07:57;;;;;;;13.18;2.20;;;6.10;99.90;;;;;;5011707;28;20037;-53
2022/02/07 00:10:23;;;;;;;16.98;2.70;;;6.00;99.90;;;;;;5011316;28;20022;-52
2022/02/07 00:12:49;;;;;;;16.73;2.85;;;6.10;99.90;;;;;;5010856;28;20026;-53
2022/02/07 00:15:16;;;;;;;16.67;2.30;;;6.00;99.90;;;;;;5010685;28;20065;-53
2022/02/07 00:17:42;;;;;;;18.95;2.63;;;6.00;99.90;;;;;;5011769;28;20101;-54
2022/02/07 00:20:14;;;;;;;16.52;2.65;;;5.90;99.90;;;;;;5011096;28;20109;-53
2022/02/07 00:22:40;;;;;;;13.83;2.53;;;5.90;99.90;;;;;;5011799;28;20033;-53
2022/02/07 00:25:06;;;;;;;15.40;2.85;;;5.90;99.90;;;;;;5012013;28;20034;-53
2022/02/07 00:27:32;;;;;;;13.82;2.58;;;5.90;99.90;;;;;;5011501;28;20540;-53
2022/02/07 00:29:58;;;;;;;9.65;2.50;;;5.90;99.90;;;;;;5009495;28;20038;-53
2022/02/07 00:32:23;;;;;;;8.15;1.65;;;5.90;99.90;;;;;;5009784;28;20537;-53
2022/02/07 00:34:49;;;;;;;12.68;2.05;;;5.90;99.90;;;;;;5011044;28;20025;-53
2022/02/07 00:37:15;;;;;;;11.77;1.85;;;5.90;99.90;;;;;;5009634;28;20022;-53
2022/02/07 00:39:53;;;;;;;16.42;2.50;;;5.90;99.90;;;;;;5011322;28;20113;-53
2022/02/07 00:42:32;;;;;;;13.07;1.85;;;5.90;99.90;;;;;;5011191;28;20030;-53
2022/02/07 00:45:06;;;;;;;12.45;1.83;;;5.80;99.90;;;;;;5010151;28;20610;-53
2022/02/07 00:47:32;;;;;;;10.70;1.88;;;5.80;99.90;;;;;;5011140;28;20113;-53
2022/02/07 00:49:58;;;;;;;16.02;2.60;;;5.80;99.90;;;;;;5010762;28;20105;-53
2022/02/07 00:52:23;;;;;;;11.23;2.20;;;5.70;99.90;;;;;;5010920;28;20080;-53
2022/02/07 00:54:50;;;;;;;14.25;2.20;;;5.70;99.90;;;;;;5011549;28;20046;-53
2022/02/07 00:57:16;;;;;;;11.57;2.10;;;5.60;99.90;;;;;;5011170;28;20443;-53
2022/02/07 00:59:41;;;;;;;13.23;1.85;;;5.60;99.90;;;;;;5011251;28;20022;-53
2022/02/07 01:02:07;;;;;;;12.10;2.20;;;5.60;99.90;;;;;;5010621;28;20025;-53
2022/02/07 01:04:33;;;;;;;14.05;1.50;;;5.60;99.90;;;;;;5011037;28;20010;-53
2022/02/07 01:07:01;;;;;;;18.48;2.22;;;5.60;99.90;;;;;;5011154;28;20399;-53
2022/02/07 01:09:36;;;;;;;10.18;2.05;;;5.60;99.90;;;;;;5010275;28;20041;-53
2022/02/07 01:52:34;;;;;;;18.55;3.53;;;5.40;99.90;;;;;;5013031;28;20041;-53
2022/02/07 01:55:50;;;;;;;16.77;4.03;;;5.30;99.90;;;;;;5014035;28;20100;-53
2022/02/07 01:57:48;;;;;;;16.88;3.00;;;5.30;99.90;;;;;;5006393;28;20041;-53
2022/02/07 02:00:17;;;;;;;15.30;3.00;;;5.30;99.90;;;;;;5012605;28;20022;-53
2022/02/07 02:02:43;;;;;;;11.55;2.92;;;5.30;99.90;;;;;;5014288;28;20368;-53
2022/02/07 02:05:09;;;;;;;15.25;3.30;;;5.30;99.90;;;;;;5014054;28;20105;-53
2022/02/07 02:07:35;;;;;;;19.45;2.95;;;5.30;99.90;;;;;;5013681;28;20076;-53
2022/02/07 02:10:00;;;;;;;19.67;2.80;;;5.20;99.90;;;;;;5013604;28;20025;-53
2022/02/07 02:12:30;;;;;;;16.92;3.10;;;5.20;99.90;;;;;;5013019;28;20537;-53
2022/02/07 02:15:18;;;;;;;12.10;2.95;;;5.10;99.90;;;;;;5012259;28;20026;-53
2022/02/07 02:38:52;;;;;;;15.40;2.10;;;4.80;99.90;;;;;;5013007;28;20022;-53
2022/02/07 02:46:52;;;;;;;17.48;3.20;;;4.70;99.90;;;;;;4984674;28;20038;-53
2022/02/07 02:49:18;;;;;;;15.68;2.20;;;4.70;99.90;;;;;;5012308;28;20044;-53
2022/02/07 02:51:43;;;;;;;10.55;2.10;;;4.70;99.90;;;;;;5012602;28;20021;-53
2022/02/07 02:54:09;;;;;;;8.48;1.90;;;4.60;99.90;;;;;;5011248;28;20412;-53
2022/02/07 02:56:35;;;;;;;23.42;2.65;;;4.60;99.90;;;;;;5012782;28;20027;-53
2022/02/07 02:59:02;;;;;;;15.90;2.00;;;4.60;99.90;;;;;;5012826;28;20022;-53
2022/02/07 03:01:28;;;;;;;12.10;2.50;;;4.60;99.90;;;;;;5012471;28;20026;-53
2022/02/07 03:03:53;;;;;;;13.13;2.22;;;4.60;99.90;;;;;;5012920;28;20448;-53
2022/02/07 03:06:19;;;;;;;12.05;2.17;;;4.50;99.90;;;;;;5012740;28;20488;-53
2022/02/07 03:08:45;;;;;;;13.02;2.30;;;4.50;99.90;;;;;;5012416;28;20030;-53
2022/02/07 03:11:15;;;;;;;11.80;2.58;;;4.40;99.90;;;;;;5012080;28;20041;-52
2022/02/07 03:19:00;;;;;;;19.90;2.20;;;4.50;99.90;;;;;;5012556;28;20080;-53
2022/02/07 03:21:26;;;;;;;23.35;2.42;;;4.40;99.90;;;;;;5012553;28;20541;-53
2022/02/07 03:23:51;;;;;;;15.15;2.38;;;4.40;99.90;;;;;;5012864;28;20041;-53
2022/02/07 03:26:19;;;;;;;22.30;2.78;;;4.40;99.90;;;;;;5012000;28;20494;-53
2022/02/07 03:28:48;;;;;;;12.00;2.35;;;4.50;99.90;;;;;;5012422;28;20018;-53
2022/02/07 03:31:15;;;;;;;18.38;2.50;;;4.50;99.90;;;;;;5012071;28;20045;-53
2022/02/07 03:33:40;;;;;;;14.55;2.38;;;4.60;99.90;;;;;;5012569;28;20030;-53
2022/02/07 03:36:06;;;;;;;23.55;2.65;;;4.60;99.90;;;;;;5011676;28;20053;-53
2022/02/07 03:38:33;;;;;;;18.27;2.20;;;4.60;99.90;;;;;;5011422;28;20049;-53
2022/02/07 03:40:58;;;;;;;16.45;1.92;;;4.60;99.90;;;;;;5011822;28;20084;-53
2022/02/07 03:43:24;;;;;;;15.70;2.22;;;4.50;99.90;;;;;;5011891;28;20113;-53
2022/02/07 03:45:50;;;;;;;11.85;2.10;;;4.50;99.90;;;;;;5011889;28;20030;-53
2022/02/07 03:48:15;;;;;;;13.95;2.30;;;4.50;99.90;;;;;;5011517;28;20038;-53
2022/02/07 03:50:41;;;;;;;25.52;2.85;;;4.50;99.90;;;;;;5011823;28;20061;-53
2022/02/07 03:53:07;;;;;;;13.18;2.28;;;4.40;99.90;;;;;;5011733;28;20025;-53
2022/02/07 03:55:32;;;;;;;10.77;2.30;;;4.40;99.90;;;;;;5011972;28;20087;-52
2022/02/07 03:57:58;;;;;;;17.17;2.20;;;4.40;99.90;;;;;;5012874;28;20029;-53
2022/02/07 04:00:25;;;;;;;13.38;2.30;;;4.30;99.90;;;;;;5012160;28;20025;-53
2022/02/07 04:02:52;;;;;;;12.48;2.75;;;4.30;99.90;;;;;;5010739;28;20096;-53
2022/02/07 04:08:00;;;;;;;23.25;2.22;;;4.30;99.90;;;;;;5011820;28;20026;-53
2022/02/07 04:10:27;;;;;;;14.25;2.47;;;4.30;99.90;;;;;;5011571;28;20297;-53
2022/02/07 04:12:59;;;;;;;18.65;2.22;;;4.20;99.90;;;;;;5010870;28;20475;-53
2022/02/07 04:15:24;;;;;;;14.77;2.40;;;4.20;99.90;;;;;;5010293;28;20172;-53
2022/02/07 04:17:57;;;;;;;14.70;2.03;;;4.20;99.90;;;;;;5009785;28;20065;-53
2022/02/07 04:20:23;;;;;;;12.25;2.35;;;4.20;99.90;;;;;;5009700;28;20026;-53
2022/02/07 04:22:49;;;;;;;19.10;2.85;;;4.20;99.90;;;;;;5010813;28;20033;-53
2022/02/07 04:25:15;;;;;;;15.02;2.08;;;4.20;99.90;;;;;;4993166;28;20034;-53
2022/02/07 04:27:40;;;;;;;12.43;2.30;;;4.20;99.90;;;;;;5010619;28;20034;-53
2022/02/07 04:30:07;;;;;;;12.98;2.60;;;4.20;99.90;;;;;;5010577;28;20050;-53
2022/02/07 04:32:33;;;;;;;13.68;1.83;;;4.20;99.90;;;;;;5009614;28;20509;-53
2022/02/07 04:34:58;;;;;;;16.00;2.33;;;4.20;99.90;;;;;;5011030;28;20101;-53
2022/02/07 04:37:24;;;;;;;15.95;2.78;;;4.30;99.90;;;;;;5011600;28;20036;-53
2022/02/07 04:39:52;;;;;;;13.95;1.77;;;4.20;99.90;;;;;;5011709;28;20048;-53
2022/02/07 04:42:19;;;;;;;15.00;2.80;;;4.30;99.90;;;;;;5011288;28;20117;-53
2022/02/07 04:45:34;;;;;;;14.10;2.03;;;4.30;99.90;;;;;;5010725;28;20022;-53
2022/02/07 04:56:00;;;;;;;20.75;2.67;;;4.60;99.90;;;;;;5011262;28;20113;-53
2022/02/07 05:01:26;;;;;;;14.55;2.33;;;4.70;99.90;;;;;;5015998;28;20076;-53
2022/02/07 05:03:57;;;;;;;13.60;2.07;;;4.70;99.90;;;;;;5015436;28;20065;-53
2022/02/07 05:14:36;;;;;;;11.63;2.83;;;4.70;99.90;;;;;;5014864;28;20037;-53
2022/02/07 05:17:06;;;;;;;13.85;2.63;;;4.70;99.90;;;;;;5014376;28;20024;-54
2022/02/07 05:19:32;;;;;;;13.65;2.72;;;4.70;99.90;;;;;;5013981;28;20018;-53
2022/02/07 05:21:57;;;;;;;17.92;2.85;;;4.80;99.90;;;;;;5013489;28;20038;-53
2022/02/07 05:24:23;;;;;;;13.13;2.67;;;4.80;99.90;;;;;;5013976;28;20479;-53
2022/02/07 05:26:48;;;;;;;18.55;2.83;;;4.90;99.90;;;;;;5013138;28;20088;-53
2022/02/07 05:29:14;;;;;;;16.65;2.95;;;5.00;99.90;;;;;;5013232;28;20032;-53
2022/02/07 05:31:40;;;;;;;15.82;2.28;;;5.00;99.90;;;;;;5013346;28;20034;-53
2022/02/07 05:34:07;;;;;;;10.55;2.03;;;5.00;99.90;;;;;;5013783;28;20029;-53
2022/02/07 05:36:37;;;;;;;16.30;2.92;;;5.10;99.90;;;;;;5014170;28;20091;-53
2022/02/07 05:39:04;;;;;;;15.70;2.67;;;5.10;99.90;;;;;;5014263;28;20394;-53
2022/02/07 05:41:30;;;;;;;17.90;3.00;;;5.10;99.90;;;;;;5014012;28;20030;-54
2022/02/07 05:43:55;;;;;;;21.15;3.13;;;5.10;99.90;;;;;;5013000;28;20037;-54
2022/02/07 05:46:21;;;;;;;17.13;3.28;;;5.10;99.90;;;;;;5013745;28;20022;-54
2022/02/07 05:48:47;;;;;;;11.52;2.85;;;5.10;99.90;;;;;;5013914;28;20483;-54
2022/02/07 05:51:12;;;;;;;18.23;3.25;;;5.10;99.90;;;;;;4996432;28;20142;-54
2022/02/07 05:53:38;;;;;;;17.52;3.05;;;5.00;99.90;;;;;;5013608;28;20029;-54
2022/02/07 05:56:04;;;;;;;12.07;2.40;;;4.90;99.90;;;;;;5014279;28;20068;-54
2022/02/07 05:58:30;;;;;;;17.20;3.05;;;4.80;99.90;;;;;;5013808;28;20109;-54
2022/02/07 06:00:55;;;;;;;21.35;3.30;;;4.80;99.90;;;;;;5013905;28;20026;-54
2022/02/07 06:03:21;;;;;;;19.15;2.60;;;4.70;99.90;;;;;;5013740;28;20045;-54
2022/02/07 06:05:49;;;;;;;14.60;2.72;;;4.70;99.90;;;;;;5014199;28;20026;-54
2022/02/07 06:08:15;;;;;;;20.02;3.13;;;4.60;99.90;;;;;;5013373;28;20026;-54
2022/02/07 06:10:43;;;;;;;20.15;2.65;;;4.70;99.90;;;;;;5012394;28;20030;-54
2022/02/07 06:13:17;;;;;;;18.77;3.10;;;4.70;99.90;;;;;;5013500;28;20099;-54
2022/02/07 06:15:43;;;;;;;21.30;3.42;;;4.70;99.90;;;;;;5013983;28;20014;-53
2022/02/07 06:18:11;;;;;;;13.95;3.35;;;4.70;99.90;;;;;;5013280;28;20026;-54
2022/02/07 06:20:37;;;;;;;18.08;3.13;;;4.70;99.90;;;;;;5013324;28;20033;-54
2022/02/07 06:23:03;;;;;;;12.93;2.50;;;4.60;99.90;;;;;;5012809;28;20034;-54
2022/02/07 06:25:28;;;;;;;17.17;2.78;;;4.60;99.90;;;;;;5013192;28;20038;-54
2022/02/07 06:27:54;;;;;;;15.07;2.45;;;4.50;99.90;;;;;;5013151;28;20049;-54
2022/02/07 06:30:20;;;;;;;20.35;2.92;;;4.50;99.90;;;;;;5012980;28;20045;-54
2022/02/07 06:32:45;;;;;;;16.67;3.42;;;4.50;99.90;;;;;;5013049;28;20037;-54
2022/02/07 06:35:11;;;;;;;18.23;3.47;;;4.40;99.90;;;;;;5013413;28;20033;-54
2022/02/07 06:37:37;;;;;;;15.88;3.58;;;4.40;99.90;;;;;;5013097;28;20034;-54
2022/02/07 06:40:04;;;;;;;15.25;3.08;;;4.40;99.90;;;;;;5013266;28;20045;-54
2022/02/07 06:42:30;;;;;;;14.57;3.92;;;4.40;99.90;;;;;;5012991;28;20479;-54
2022/02/07 06:44:56;;;;;;;13.90;3.35;;;4.40;99.90;;;;;;5014776;28;20117;-54
2022/02/07 06:47:21;;;;;;;18.35;4.10;;;4.40;99.90;;;;;;5027121;28;20731;-53
2022/02/07 06:49:47;;;;;;;11.85;3.20;;;4.40;99.90;;;;;;5016466;28;20030;-53
2022/02/07 06:52:12;;;;;;;18.83;2.65;;;4.40;99.90;;;;;;5020220;28;20095;-53
2022/02/07 06:54:38;;;;;;;11.63;2.45;;;4.40;99.90;;;;;;5031187;28;20087;-54
2022/02/07 06:57:04;;;;;;;11.65;2.55;;;4.50;99.90;;;;;;5017221;28;20066;-54
2022/02/07 06:59:35;;;;;;;13.45;3.25;;;4.50;99.90;;;;;;5020985;28;20033;-54
2022/02/07 07:02:00;;;;;;;12.70;2.63;;;4.50;99.90;;;;;;5012348;28;20036;-54
2022/02/07 07:04:28;;;;;;;8.65;2.58;;;4.50;99.90;;;;;;5015343;28;20041;-53
2022/02/07 07:06:54;;;;;;;17.40;3.00;;;4.60;99.90;;;;;;5020397;28;20597;-53
2022/02/07 07:09:19;;;;;;;16.73;3.65;;;4.60;99.90;;;;;;5015203;28;20217;-54
2022/02/07 07:11:45;;;;;;;17.38;3.10;;;4.60;99.90;;;;;;5017682;28;20061;-53
2022/02/07 07:14:17;;;;;;;20.45;3.25;;;4.60;99.90;;;;;;5019436;28;20041;-53
2022/02/07 07:16:52;;;;;;;14.15;3.30;;;4.60;99.90;;;;;;5016630;28;20596;-54
2022/02/07 07:19:19;;;;;;;13.70;2.33;;;4.60;99.90;;;;;;5019217;28;20506;-53
2022/02/07 07:21:46;;;;;;;13.20;2.53;;;4.50;99.90;;;;;;5015232;28;20025;-54
2022/02/07 07:24:12;;;;;;;12.77;2.35;;;4.50;99.90;;;;;;5014346;28;20022;-53
2022/02/07 07:26:38;;;;;;;17.45;3.00;;;4.50;99.90;;;;;;5006302;28;20032;-53
2022/02/07 07:29:12;;;;;;;16.92;3.03;;;4.50;99.90;;;;;;5018606;28;20410;-53
2022/02/07 07:31:43;;;;;;;9.35;2.20;;;4.60;99.90;;;;;;5007187;28;20328;-53
2022/02/07 07:34:09;;;;;;;15.77;3.25;;;4.50;99.90;;;;;;5011629;28;20340;-53
2022/02/07 07:36:34;;;;;;;19.13;2.88;;;4.60;99.90;;;;;;5014662;28;20589;-53
2022/02/07 07:39:00;;;;;;;16.38;3.25;;;4.50;99.90;;;;;;5014837;28;20053;-53
2022/02/07 07:41:27;;;;;;;19.13;3.25;;;4.50;99.90;;;;;;5010593;28;20049;-53
2022/02/07 07:43:52;;;;;;;18.67;2.83;;;4.50;99.90;;;;;;5015461;28;20033;-53
2022/02/07 07:46:25;;;;;;;10.73;2.83;;;4.50;99.90;;;;;;5023197;28;20045;-53
2022/02/07 07:48:58;;;;;;;14.52;3.17;;;4.50;99.90;;;;;;5017329;28;20029;-53
2022/02/07 07:51:38;;;;;;;11.93;3.38;;;4.40;99.90;;;;;;5018113;28;20026;-53
2022/02/07 08:02:10;;;;;;;16.17;3.38;;;4.20;99.90;;;;;;5011428;28;20095;-53
2022/02/07 08:04:39;;;;;;;12.77;2.65;;;4.30;99.90;;;;;;5018495;28;20108;-53
2022/02/07 08:07:15;;;;;;;14.40;3.35;;;4.30;99.90;;;;;;5012797;28;21028;-53
2022/02/07 08:12:25;;;;;;;14.60;2.92;;;4.40;99.90;;;;;;5012360;28;20080;-53
2022/02/07 08:14:51;;;;;;;17.70;3.55;;;4.40;99.90;;;;;;5014191;28;20095;-53
2022/02/07 08:17:21;;;;;;;13.90;3.55;;;4.50;99.90;;;;;;5017795;28;20021;-53
2022/02/07 08:19:48;;;;;;;16.00;3.05;;;4.60;99.90;;;;;;5011955;28;20064;-53
2022/02/07 08:22:13;;;;;;;12.40;3.80;;;4.70;99.90;;;;;;5016963;28;20458;-53
2022/02/07 08:24:40;;;;;;;13.77;3.17;;;4.80;99.90;;;;;;5013636;28;20030;-54
2022/02/07 08:27:06;;;;;;;11.43;2.78;;;4.80;99.90;;;;;;5018969;28;20029;-53
2022/02/07 08:29:32;;;;;;;15.85;3.00;;;4.80;99.90;;;;;;5017749;28;20558;-53
2022/02/07 08:31:58;;;;;;;14.43;3.22;;;4.90;99.90;;;;;;5018338;28;20040;-53
2022/02/07 08:34:24;;;;;;;13.38;2.90;;;4.90;99.90;;;;;;5020472;28;20049;-53
2022/02/07 08:36:52;;;;;;;13.98;2.90;;;5.00;99.90;;;;;;5017176;28;20034;-53
2022/02/07 08:39:17;;;;;;;12.77;3.35;;;5.60;99.90;;;;;;5020263;28;20041;-53
2022/02/07 08:41:43;;;;;;;13.07;2.78;;;6.50;99.90;;;;;;5019187;28;20022;-53
2022/02/07 08:44:09;;;;;;;13.32;3.13;;;7.50;99.90;;;;;;5022273;28;20029;-53
2022/02/07 08:46:35;;;;;;;15.85;3.13;;;8.40;99.90;;;;;;5017766;28;20032;-54
2022/02/07 08:49:02;;;;;;;12.35;2.95;;;8.80;99.90;;;;;;5015798;28;20033;-54
2022/02/07 08:51:31;;;;;;;13.60;3.50;;;9.40;99.90;;;;;;5020406;28;20123;-54
2022/02/07 08:53:57;;;;;;;12.68;3.22;;;9.80;99.90;;;;;;5018263;28;20520;-54
2022/02/07 08:56:37;;;;;;;11.27;2.95;;;10.10;99.90;;;;;;5015111;28;20026;-53
2022/02/07 08:59:03;;;;;;;8.82;2.53;;;10.50;99.90;;;;;;5022704;28;20028;-53
2022/02/07 09:01:40;;;;;;;8.63;2.90;;;10.50;99.90;;;;;;5018226;28;20040;-54
2022/02/07 09:06:40;;;;;;;10.43;3.03;;;10.70;99.90;;;;;;5011900;28;20022;-53
2022/02/07 09:09:15;;;;;;;;;;;10.80;99.90;;;;;;5019428;28;20045;-54
2022/02/07 09:11:41;;;;;;;13.65;3.58;;;11.10;99.90;;;;;;5016562;28;19909;-53
2022/02/07 09:14:12;;;;;;;14.23;3.28;;;10.70;99.90;;;;;;5015267;28;20471;-53
2022/02/07 09:16:39;;;;;;;11.50;2.50;;;11.10;99.90;;;;;;5021915;28;20028;-54
2022/02/07 09:19:06;;;;;;;13.68;3.08;;;11.60;99.90;;;;;;5002389;28;20028;-54
2022/02/07 09:21:32;;;;;;;11.63;2.28;;;11.90;99.90;;;;;;5015688;28;20087;-53
2022/02/07 09:23:58;;;;;;;18.52;2.75;;;12.00;99.90;;;;;;5015397;28;20031;-53
2022/02/07 09:26:25;;;;;;;9.07;2.50;;;11.80;99.90;;;;;;5016220;28;20029;-53
2022/02/07 09:28:51;;;;;;;8.55;2.70;;;11.90;99.90;;;;;;5013643;28;20095;-53
2022/02/07 09:31:18;;;;;;;7.72;2.28;;;12.20;99.90;;;;;;5009786;28;20064;-53
2022/02/07 09:33:44;;;;;;;10.13;2.85;;;12.50;99.90;;;;;;5013001;28;20217;-53
2022/02/07 09:36:12;;;;;;;9.85;2.50;;;12.00;99.90;;;;;;5016059;28;20086;-52
2022/02/07 09:38:38;;;;;;;8.07;2.33;;;11.40;99.90;;;;;;5021980;28;20046;-53
2022/02/07 09:41:04;;;;;;;12.73;2.72;;;11.60;99.90;;;;;;5014349;28;20089;-53
2022/02/07 09:43:32;;;;;;;12.75;2.38;;;12.00;99.90;;;;;;5012050;28;20108;-53
2022/02/07 09:46:10;;;;;;;14.13;3.03;;;12.20;99.90;;;;;;5022114;28;20491;-53
2022/02/07 09:48:39;;;;;;;12.52;3.13;;;12.00;99.90;;;;;;5014363;28;20025;-53
2022/02/07 09:51:06;;;;;;;9.52;2.38;;;12.00;99.90;;;;;;5020563;28;20030;-53
2022/02/07 09:53:33;;;;;;;6.60;2.40;;;11.80;99.90;;;;;;5018331;28;20029;-53
2022/02/07 09:56:00;;;;;;;11.32;2.78;;;11.70;99.90;;;;;;5037662;28;20032;-54
2022/02/07 09:58:25;;;;;;;10.70;2.60;;;12.00;99.90;;;;;;5033305;28;20021;-54
2022/02/07 10:00:51;;;;;;;8.82;2.53;;;12.00;99.90;;;;;;5017739;28;20083;-54
2022/02/07 10:03:22;;;;;;;9.40;2.53;;;11.70;99.90;;;;;;5015561;28;20036;-55
2022/02/07 10:05:53;;;;;;;8.15;2.00;;;12.10;99.90;;;;;;5019532;28;20033;-54
2022/02/07 10:11:18;;;;;;;9.32;1.90;;;12.00;99.90;;;;;;5019982;28;20029;-54
2022/02/07 10:19:25;;;;;;;7.82;2.17;;;11.20;99.90;;;;;;5020320;28;20091;-54
2022/02/07 10:43:44;;;;;;;11.60;2.67;;;13.00;99.90;;;;;;5014671;28;20033;-54
2022/02/07 10:46:18;;;;;;;9.32;2.28;;;12.90;99.90;;;;;;5019286;28;20030;-54
2022/02/07 10:48:54;;;;;;;9.75;2.53;;;12.90;99.90;;;;;;5013077;28;20424;-54
2022/02/07 10:51:24;;;;;;;7.43;2.30;;;13.30;99.90;;;;;;5010650;28;20029;-54
2022/02/07 10:54:02;;;;;;;7.35;2.50;;;13.00;99.90;;;;;;5013701;28;20021;-54
2022/02/07 10:56:38;;;;;;;8.48;1.90;;;13.10;99.90;;;;;;5011117;28;20523;-54
2022/02/07 10:59:10;;;;;;;6.85;2.10;;;13.30;99.90;;;;;;5009921;28;20060;-54
2022/02/07 11:04:10;;;;;;;7.40;2.13;;;14.10;99.90;;;;;;5009428;28;20121;-55
2022/02/07 11:06:39;;;;;;;9.60;2.13;;;13.60;99.90;;;;;;5013207;28;20030;-54
2022/02/07 11:15:14;;;;;;;8.25;2.42;;;14.30;99.90;;;;;;4996007;28;20281;-54
2022/02/07 11:17:29;;;;;;;8.77;2.45;;;14.30;99.50;;;;;;5001889;28;20038;-54
2022/02/07 11:28:26;;;;;;;6.47;1.90;;;14.60;99.30;;;;;;5009373;28;20021;-54
2022/02/07 11:31:04;;;;;;;11.82;2.80;;;15.00;96.50;;;;;;5008630;28;20058;-54
2022/02/07 11:33:50;;;;;;;7.22;1.80;;;15.70;95.90;;;;;;5012997;28;20286;-54
2022/02/07 11:36:24;;;;;;;7.68;2.25;;;15.50;94.40;;;;;;5008214;28;20105;-54
2022/02/07 11:39:03;;;;;;;12.23;2.55;;;15.40;95.40;;;;;;5009472;28;20063;-54
2022/02/07 11:41:29;;;;;;;8.73;2.38;;;14.90;95.50;;;;;;5017725;28;20119;-53
2022/02/07 11:43:55;;;;;;;7.05;2.53;;;15.20;96.10;;;;;;5010755;28;20736;-54
2022/02/07 11:46:22;;;;;;;10.68;2.03;;;16.00;94.70;;;;;;5009942;28;20026;-55
2022/02/07 11:48:54;;;;;;;8.30;2.40;;;15.90;95.50;;;;;;5013672;28;20105;-54
2022/02/07 11:51:23;;;;;;;8.57;2.05;;;16.00;93.40;;;;;;5008872;28;20641;-54
2022/02/07 11:53:58;;;;;;;11.60;2.40;;;16.20;92.20;;;;;;5006787;28;20117;-54
2022/02/07 11:56:38;;;;;;;20.08;3.05;;;16.50;90.50;;;;;;5007160;28;20499;-54
2022/02/07 11:59:11;;;;;;;12.93;2.20;;;16.30;91.00;;;;;;5010410;28;20076;-54
2022/02/07 12:02:24;;;;;;;8.65;1.77;;;16.30;91.60;;;;;;5009593;28;20435;-54
2022/02/07 12:04:51;;;;;;;10.90;2.20;;;16.60;89.50;;;;;;4990029;28;20970;-54
2022/02/07 12:07:23;;;;;;;9.00;2.15;;;16.60;90.70;;;;;;5007183;28;20022;-54
2022/02/07 12:10:43;;;;;;;7.32;1.92;;;16.90;87.60;;;;;;5010043;28;20034;-54
2022/02/07 12:12:48;;;;;;;7.50;1.80;;;17.10;84.00;;;;;;5002442;28;20503;-53
2022/02/07 12:15:45;;;;;;;7.65;2.20;;;16.20;84.40;;;;;;5009031;28;20021;-54
2022/02/07 12:18:14;;;;;;;8.93;2.15;;;16.20;88.20;;;;;;5010098;28;20083;-54
2022/02/07 12:20:43;;;;;;;8.20;1.80;;;16.40;89.50;;;;;;5019266;28;20032;-55
2022/02/07 12:23:11;;;;;;;4.88;1.75;;;16.50;88.00;;;;;;5020210;28;20025;-55
2022/02/07 12:25:38;;;;;;;11.50;2.38;;;16.40;87.30;;;;;;5013627;28;20061;-54
2022/02/07 12:28:07;;;;;;;10.68;2.25;;;16.40;86.30;;;;;;5015488;28;20032;-54
2022/02/07 12:33:18;;;;;;;7.93;1.77;;;16.30;86.60;;;;;;5014438;28;20088;-55
2022/02/07 12:35:47;;;;;;;10.23;2.13;;;15.70;87.60;;;;;;5013303;28;20033;-55
2022/02/07 12:38:12;;;;;;;10.32;2.10;;;16.00;89.20;;;;;;5015699;28;20025;-55
2022/02/07 12:40:42;;;;;;;11.25;1.88;;;15.80;87.20;;;;;;5009031;28;20032;-54
2022/02/07 12:43:11;;;;;;;9.57;2.17;;;16.30;88.20;;;;;;5012447;28;20022;-54
2022/02/07 12:45:42;;;;;;;6.93;1.70;;;15.90;84.40;;;;;;5015403;28;20064;-55
2022/02/07 12:48:19;;;;;;;9.13;1.92;;;15.50;87.30;;;;;;5019920;28;20494;-55
2022/02/07 12:50:53;;;;;;;6.10;1.90;;;15.10;87.00;;;;;;5010272;28;20041;-54
2022/02/07 12:53:21;;;;;;;5.07;1.42;;;15.30;87.50;;;;;;5013720;28;20037;-55
2022/02/07 12:55:55;;;;;;;5.68;1.80;;;15.10;86.40;;;;;;5009689;28;20041;-54
2022/02/07 12:58:33;;;;;;;6.90;1.83;;;15.30;88.60;;;;;;5009906;28;20034;-54
2022/02/07 13:00:58;;;;;;;8.55;1.90;;;16.20;86.40;;;;;;5009301;28;20320;-54
2022/02/07 13:03:24;;;;;;;4.68;1.70;;;16.50;83.20;;;;;;5011104;28;20125;-54
2022/02/07 13:05:50;;;;;;;7.43;1.77;;;16.10;87.30;;;;;;5010481;28;20037;-54
2022/02/07 13:08:17;;;;;;;8.63;2.25;;;16.20;85.70;;;;;;4995885;28;20087;-53
2022/02/07 13:10:55;;;;;;;7.43;1.90;;;15.70;88.80;;;;;;5010831;28;20036;-54
2022/02/07 13:13:39;;;;;;;12.60;2.10;;;15.40;90.40;;;;;;5009803;28;20603;-54
2022/02/07 13:16:05;;;;;;;8.10;1.80;;;15.70;89.50;;;;;;5009098;28;20747;-54
2022/02/07 13:18:34;;;;;;;6.45;1.50;;;16.20;89.70;;;;;;5010475;28;20394;-54
2022/02/07 13:21:12;;;;;;;8.63;1.85;;;16.30;86.60;;;;;;5014654;28;20490;-54
2022/02/07 13:23:38;;;;;;;11.05;2.05;;;16.90;83.40;;;;;;5012509;28;20526;-54
2022/02/07 13:26:05;;;;;;;9.43;1.77;;;16.50;85.10;;;;;;5012756;28;20061;-54
2022/02/07 13:28:33;;;;;;;8.15;2.00;;;16.10;84.70;;;;;;5017364;28;20025;-54
2022/02/07 13:31:01;;;;;;;10.38;2.03;;;16.30;83.60;;;;;;5021240;28;20038;-54
2022/02/07 13:33:27;;;;;;;6.28;1.60;;;16.00;85.80;;;;;;5017312;28;20030;-54
2022/02/07 13:35:56;;;;;;;9.60;1.65;;;16.30;82.30;;;;;;5017962;28;20042;-54
2022/02/07 13:38:23;;;;;;;5.97;1.55;;;16.00;83.70;;;;;;5014980;28;20104;-54
2022/02/07 13:40:50;;;;;;;6.75;1.77;;;16.00;82.80;;;;;;5010064;28;20087;-54
2022/02/07 13:43:23;;;;;;;8.75;1.63;;;16.30;85.00;;;;;;5015415;28;20499;-54
2022/02/07 13:45:51;;;;;;;6.15;1.95;;;16.50;85.00;;;;;;5012162;28;20120;-53
2022/02/07 13:48:19;;;;;;;8.02;1.70;;;15.50;89.10;;;;;;5015641;28;20041;-53
2022/02/07 13:50:50;;;;;;;10.20;2.03;;;15.20;89.50;;;;;;5019548;28;20055;-54
2022/02/07 13:53:17;;;;;;;6.97;1.60;;;15.80;87.30;;;;;;5029957;28;20749;-56
2022/02/07 13:55:49;;;;;;;4.38;1.35;;;16.00;84.20;;;;;;5015815;28;20080;-54
2022/02/07 13:58:18;;;;;;;5.90;1.45;;;16.00;83.40;;;;;;5012292;28;20053;-54
2022/02/07 14:00:50;;;;;;;7.15;1.48;;;16.40;80.10;;;;;;5015543;28;20087;-54
2022/02/07 14:03:22;;;;;;;7.07;1.43;;;16.00;80.40;;;;;;5013895;28;20025;-54
2022/02/07 14:05:53;;;;;;;7.57;1.65;;;15.60;83.30;;;;;;5018348;28;20033;-55
2022/02/07 14:08:37;;;;;;;9.68;1.70;;;15.70;83.90;;;;;;5015449;28;20037;-54
2022/02/07 14:11:07;;;;;;;10.45;1.55;;;15.40;86.60;;;;;;5017488;28;20087;-54
2022/02/07 14:13:34;;;;;;;7.68;1.88;;;14.60;89.10;;;;;;5015814;28;20176;-54
2022/02/07 14:16:00;;;;;;;10.32;1.98;;;13.30;92.60;;;;;;5011356;28;20059;-54
2022/02/07 14:18:26;;;;;;;10.77;2.30;;;12.10;95.80;;;;;;5008323;28;20036;-54
2022/02/07 14:20:53;;;;;;;11.23;2.33;;;11.10;99.70;;;;;;5015591;28;20026;-53
2022/02/07 14:23:19;;;;;;;10.77;2.72;;;10.80;99.90;;;;;;5010574;28;20073;-53
2022/02/07 14:25:48;;;;;;;11.90;2.55;;;10.50;99.90;;;;;;5016377;28;20462;-54
2022/02/07 14:28:14;;;;;;;10.43;2.83;;;10.30;99.90;;;;;;5011184;28;20033;-55
2022/02/07 14:30:40;;;;;;;11.88;2.95;;;10.40;99.90;;;;;;5008355;28;20053;-54
2022/02/07 14:33:06;;;;;;;13.10;2.90;;;10.20;99.90;;;;;;5014075;28;20034;-53
2022/02/07 14:35:32;;;;;;;11.57;2.80;;;10.30;99.90;;;;;;5018221;28;20048;-54
2022/02/07 14:38:03;;;;;;;9.48;2.47;;;10.50;99.90;;;;;;5015237;28;20484;-53
2022/02/07 14:40:33;;;;;;;12.48;2.92;;;10.40;99.90;;;;;;5013718;28;20552;-54
2022/02/07 14:43:01;;;;;;;10.82;3.03;;;10.80;99.90;;;;;;5010652;28;20024;-53
2022/02/07 14:45:32;;;;;;;8.77;2.45;;;10.90;99.90;;;;;;5014747;28;20083;-53
2022/02/07 14:48:01;;;;;;;12.45;3.25;;;10.80;99.90;;;;;;5018704;28;20073;-53
2022/02/07 14:50:28;;;;;;;11.02;3.42;;;10.90;99.90;;;;;;5017571;28;20490;-54
2022/02/07 14:52:55;;;;;;;13.82;3.35;;;11.10;99.90;;;;;;5007839;28;20053;-54
2022/02/07 14:55:23;;;;;;;8.90;2.60;;;11.00;99.90;;;;;;5019536;28;20473;-54
2022/02/07 14:57:49;;;;;;;14.25;2.53;;;10.80;99.90;;;;;;5018483;28;20513;-54
2022/02/07 15:00:18;;;;;;;7.28;2.08;;;10.80;99.90;;;;;;5018440;28;20471;-53
2022/02/07 15:02:45;;;;;;;10.48;2.58;;;10.80;99.90;;;;;;5012806;28;20038;-54
2022/02/07 15:05:11;;;;;;;6.82;2.03;;;11.10;99.90;;;;;;5028837;28;20017;-54
2022/02/07 15:07:37;;;;;;;9.85;2.20;;;11.30;99.90;;;;;;5022064;28;20033;-54
2022/02/07 15:10:04;;;;;;;8.23;2.08;;;11.30;99.90;;;;;;5028484;28;20137;-54
2022/02/07 15:12:31;;;;;;;9.00;1.88;;;10.90;99.90;;;;;;5013365;28;20116;-54
2022/02/07 15:14:58;;;;;;;9.30;2.35;;;10.70;99.90;;;;;;5016423;28;20108;-54
2022/02/07 15:17:28;;;;;;;10.20;2.20;;;10.40;99.90;;;;;;5018335;28;20014;-54
2022/02/07 15:19:57;;;;;;;7.68;1.75;;;10.20;99.90;;;;;;5014988;28;20109;-54
2022/02/07 15:22:23;;;;;;;8.75;2.05;;;10.00;99.90;;;;;;5015063;28;20494;-54
2022/02/07 15:24:49;;;;;;;9.20;2.05;;;9.90;99.90;;;;;;5012813;28;20018;-54
2022/02/07 15:27:15;;;;;;;7.38;1.88;;;10.00;99.90;;;;;;5028413;28;20140;-54
2022/02/07 15:29:43;;;;;;;8.40;2.13;;;10.40;99.90;;;;;;5013572;28;20045;-54
2022/02/07 15:34:47;;;;;;;9.75;2.00;;;10.50;99.90;;;;;;5009951;28;20156;-54